Time;durP1;ratioP1;P1;durP2;ratioP2;P2;SDS_P1;SDS_P2;PMS_P1;PMS_P2;Temp;Humidity;BMP_temperature;BMP_pressure;BME280_temperature;BME280_humidity;BME280_pressure;Samples;Min_cycle;Max_cycle;Signal;HPM_P1;HPM_P2
2022/01/19 00:00:12;;;;;;;28.85;11.38;;;;;;;2.61;77.62;101707.19;4984072;28;20513;-58
2022/01/19 00:02:39;;;;;;;26.95;11.00;;;;;;;2.61;77.94;101702.06;4984093;28;20093;-57
2022/01/19 00:05:08;;;;;;;29.25;10.52;;;;;;;2.62;77.82;101685.03;4985686;28;20070;-56
2022/01/19 00:07:35;;;;;;;26.15;9.95;;;;;;;2.62;77.55;101682.47;4987252;28;20042;-59
2022/01/19 00:10:06;;;;;;;28.90;10.38;;;;;;;2.62;78.07;101664.56;4981879;28;20058;-59
2022/01/19 00:12:33;;;;;;;27.52;10.25;;;;;;;2.63;77.79;101674.03;4987724;28;20109;-56
2022/01/19 00:15:00;;;;;;;28.48;10.43;;;;;;;2.62;77.24;101668.00;4985049;28;20054;-57
2022/01/19 00:17:26;;;;;;;28.10;10.27;;;;;;;2.65;76.96;101667.31;4984796;28;20046;-59
2022/01/19 00:19:53;;;;;;;28.00;11.13;;;;;;;2.66;77.64;101663.94;5001288;28;20054;-59
2022/01/19 00:22:20;;;;;;;30.02;10.60;;;;;;;2.67;76.57;101665.72;5008749;28;20493;-59
2022/01/19 00:24:47;;;;;;;24.15;9.45;;;;;;;2.69;78.11;101656.44;5004242;28;20673;-59
2022/01/19 00:27:14;;;;;;;25.80;11.07;;;;;;;2.69;77.52;101643.66;5006579;28;20054;-60
2022/01/19 00:29:41;;;;;;;28.08;10.70;;;;;;;2.70;77.83;101642.84;5002819;28;20473;-57
2022/01/19 00:32:07;;;;;;;32.33;10.95;;;;;;;2.69;77.75;101638.53;5005556;28;20116;-59
2022/01/19 00:34:34;;;;;;;20.67;9.48;;;;;;;2.71;78.03;101631.84;5005164;28;20046;-58
2022/01/19 00:37:00;;;;;;;29.15;10.90;;;;;;;2.71;77.08;101626.72;5008013;28;20046;-58
2022/01/19 00:39:31;;;;;;;32.72;10.73;;;;;;;2.73;77.19;101626.81;5004040;28;20120;-55
2022/01/19 00:41:58;;;;;;;33.55;10.60;;;;;;;2.73;77.42;101609.75;5004697;28;20135;-59
2022/01/19 00:44:24;;;;;;;28.20;11.48;;;;;;;2.74;78.50;101605.53;5006075;28;20579;-60
2022/01/19 00:46:51;;;;;;;26.73;9.98;;;;;;;2.75;78.01;101591.94;5000425;28;20050;-59
2022/01/19 00:49:18;;;;;;;35.70;11.43;;;;;;;2.75;77.84;101567.22;5004055;28;20077;-59
2022/01/19 00:51:45;;;;;;;25.23;9.45;;;;;;;2.76;77.71;101553.63;5005823;28;20046;-58
2022/01/19 00:54:11;;;;;;;30.95;10.93;;;;;;;2.78;78.78;101552.06;5003158;28;20042;-58
2022/01/19 00:56:38;;;;;;;30.13;10.38;;;;;;;2.80;78.41;101550.44;4999525;28;20061;-58
2022/01/19 00:59:04;;;;;;;23.85;9.73;;;;;;;2.80;78.40;101534.19;5006155;28;20532;-57
2022/01/19 01:01:31;;;;;;;28.40;11.68;;;;;;;2.80;77.94;101529.97;5009385;28;20050;-60
2022/01/19 01:03:58;;;;;;;28.08;9.98;;;;;;;2.83;78.65;101519.00;5006196;28;20072;-61
2022/01/19 01:06:25;;;;;;;27.48;11.13;;;;;;;2.83;77.62;101525.00;5008721;28;20080;-59
2022/01/19 01:08:51;;;;;;;24.13;10.90;;;;;;;2.86;78.85;101538.75;5006020;28;20042;-59
2022/01/19 01:11:20;;;;;;;27.27;11.23;;;;;;;2.86;78.32;101543.88;5008828;28;20058;-58
2022/01/19 01:16:36;;;;;;;31.52;10.73;;;;;;;2.89;78.74;101541.47;5003499;28;20051;-59
2022/01/19 01:19:05;;;;;;;30.35;9.38;;;;;;;2.92;78.99;101539.09;5005900;28;20517;-57
2022/01/19 01:21:32;;;;;;;25.55;10.60;;;;;;;2.94;78.44;101543.47;5007564;28;20100;-57
2022/01/19 01:23:59;;;;;;;36.08;11.10;;;;;;;2.95;78.21;101554.63;5005641;28;20050;-59
2022/01/19 01:26:25;;;;;;;29.02;11.43;;;;;;;2.97;78.49;101537.63;5006874;28;20120;-58
2022/01/19 01:28:52;;;;;;;25.38;10.65;;;;;;;2.99;78.21;101528.38;5007126;28;20096;-58
2022/01/19 01:31:19;;;;;;;35.90;11.25;;;;;;;3.01;77.75;101520.78;5004201;28;20096;-58
2022/01/19 01:33:46;;;;;;;31.42;11.30;;;;;;;3.01;78.59;101511.41;5006714;28;20061;-57
2022/01/19 01:36:13;;;;;;;26.63;10.05;;;;;;;3.01;78.58;101496.03;5006075;28;20045;-59
2022/01/19 01:38:39;;;;;;;27.67;10.15;;;;;;;3.00;78.94;101491.72;5007870;28;20046;-59
2022/01/19 01:41:12;;;;;;;26.23;10.20;;;;;;;2.97;78.95;101470.22;5005066;28;20038;-57
2022/01/19 01:43:39;;;;;;;27.83;10.77;;;;;;;2.96;78.71;101469.34;5007917;28;20132;-58
2022/01/19 01:46:13;;;;;;;28.92;11.88;;;;;;;2.96;78.60;101469.34;5004187;28;20042;-59
2022/01/19 01:48:45;;;;;;;29.13;11.48;;;;;;;2.96;78.03;101469.34;5004509;28;20447;-58
2022/01/19 01:54:00;;;;;;;24.23;9.50;;;;;;;2.94;77.76;101476.06;5003380;28;20433;-57
2022/01/19 01:56:26;;;;;;;26.95;11.43;;;;;;;2.93;79.23;101479.41;5007190;28;20501;-58
2022/01/19 01:58:53;;;;;;;29.85;11.30;;;;;;;2.91;78.50;101481.03;5006374;28;20112;-59
2022/01/19 02:01:20;;;;;;;26.45;10.30;;;;;;;2.89;78.52;101483.50;4990487;28;20042;-57
2022/01/19 02:03:47;;;;;;;26.70;11.23;;;;;;;2.87;78.02;101489.34;4986796;28;20570;-58
2022/01/19 02:06:32;;;;;;;29.40;11.95;;;;;;;2.79;78.87;101484.72;4990931;28;20050;-56
2022/01/19 02:09:08;;;;;;;26.55;10.98;;;;;;;2.77;78.23;101485.44;4984350;28;20514;-56
2022/01/19 02:15:50;;;;;;;28.17;11.55;;;;;;;2.77;78.29;101478.63;4987658;28;20043;-59
2022/01/19 02:23:24;;;;;;;28.00;11.93;;;;;;;2.60;79.36;101456.41;4994400;28;21797;-58
2022/01/19 02:25:54;;;;;;;27.02;10.55;;;;;;;2.55;78.53;101441.69;5005709;28;20096;-59
2022/01/19 02:42:16;;;;;;;31.48;10.70;;;;;;;2.44;79.17;101405.28;5002270;28;20046;-57
2022/01/19 02:50:16;;;;;;;24.38;10.73;;;;;;;2.46;79.32;101374.69;4999837;28;20096;-58
2022/01/19 02:52:43;;;;;;;28.83;10.25;;;;;;;2.47;79.66;101360.22;4985853;28;20042;-59
2022/01/19 02:55:10;;;;;;;38.67;12.10;;;;;;;2.48;80.05;101351.75;4995192;28;20041;-57
2022/01/19 02:57:38;;;;;;;22.38;10.07;;;;;;;2.47;79.54;101345.78;5006636;28;20057;-58
2022/01/19 03:08:44;;;;;;;27.83;11.40;;;;;;;2.61;80.01;101345.59;5012100;28;20104;-57
2022/01/19 03:11:13;;;;;;;24.90;10.20;;;;;;;2.67;80.48;101333.13;5006003;28;20045;-59
2022/01/19 03:13:40;;;;;;;38.88;10.82;;;;;;;2.73;80.07;101330.84;5001906;28;20429;-61
2022/01/19 03:16:06;;;;;;;29.27;10.57;;;;;;;2.80;79.98;101327.81;5003260;28;20088;-56
2022/01/19 03:18:33;;;;;;;44.38;11.75;;;;;;;2.85;80.47;101312.69;4999792;28;20050;-57
2022/01/19 03:21:00;;;;;;;32.95;10.57;;;;;;;2.91;80.95;101301.88;4994947;28;20153;-60
2022/01/19 03:23:27;;;;;;;30.80;12.05;;;;;;;2.95;80.96;101302.06;5001609;28;20092;-58
2022/01/19 03:25:54;;;;;;;39.65;12.65;;;;;;;3.03;80.49;101302.47;5001874;28;20054;-60
2022/01/19 03:28:21;;;;;;;34.83;11.98;;;;;;;3.08;81.03;101306.13;5007675;28;20060;-59
2022/01/19 03:30:48;;;;;;;28.75;11.50;;;;;;;3.13;79.89;101298.66;4990426;28;20058;-58
2022/01/19 03:33:15;;;;;;;35.22;10.75;;;;;;;3.19;80.42;101292.97;4984933;28;20790;-60
2022/01/19 03:35:41;;;;;;;35.42;12.30;;;;;;;3.24;80.31;101286.38;4984041;28;20050;-56
2022/01/19 03:38:09;;;;;;;28.65;10.80;;;;;;;3.29;79.87;101282.34;4981030;28;20050;-61
2022/01/19 03:40:36;;;;;;;37.13;11.27;;;;;;;3.33;80.61;101278.25;5000718;28;20135;-60
2022/01/19 03:43:05;;;;;;;36.88;12.70;;;;;;;3.36;80.72;101272.38;5002030;28;20054;-58
2022/01/19 03:45:34;;;;;;;32.30;10.45;;;;;;;3.36;80.85;101262.13;5002088;28;20099;-60
2022/01/19 03:48:34;;;;;;;29.58;11.63;;;;;;;3.41;80.45;101268.38;5006154;28;20046;-57
2022/01/19 03:50:48;;;;;;;29.00;11.25;;;;;;;3.42;79.66;101259.88;4998839;28;20112;-58
2022/01/19 03:53:15;;;;;;;28.15;10.63;;;;;;;3.45;79.73;101260.03;5004657;28;20046;-59
2022/01/19 03:55:42;;;;;;;30.92;10.95;;;;;;;3.49;80.04;101245.66;5006457;28;20045;-58
2022/01/19 03:58:08;;;;;;;32.35;11.38;;;;;;;3.51;80.07;101255.16;5008086;28;20053;-60
2022/01/19 04:00:40;;;;;;;30.23;11.45;;;;;;;3.53;79.71;101245.88;5007546;28;20053;-57
2022/01/19 04:03:10;;;;;;;30.05;12.25;;;;;;;3.54;79.20;101245.06;5010526;28;20104;-59
2022/01/19 04:05:44;;;;;;;28.27;10.65;;;;;;;3.56;79.68;101233.22;5005998;28;20049;-59
2022/01/19 04:08:10;;;;;;;30.77;10.73;;;;;;;3.56;79.73;101243.47;5007322;28;20047;-58
2022/01/19 04:10:37;;;;;;;28.48;11.45;;;;;;;3.58;79.26;101239.25;5006755;28;20050;-59
2022/01/19 04:13:11;;;;;;;28.63;11.40;;;;;;;3.60;79.83;101219.72;5007389;28;20046;-59
2022/01/19 04:15:38;;;;;;;27.15;10.80;;;;;;;3.63;79.57;101228.34;5005513;28;20556;-58
2022/01/19 04:18:05;;;;;;;26.88;9.60;;;;;;;3.62;79.83;101204.44;5004663;28;20138;-59
2022/01/19 04:20:40;;;;;;;25.05;9.68;;;;;;;3.62;79.33;101198.41;5006017;28;20065;-59
2022/01/19 04:23:07;;;;;;;27.83;10.50;;;;;;;3.59;80.03;101197.44;5007846;28;20092;-58
2022/01/19 04:25:34;;;;;;;27.13;10.20;;;;;;;3.59;79.48;101192.31;5008251;28;20045;-55
2022/01/19 04:28:07;;;;;;;24.40;10.63;;;;;;;3.59;79.65;101187.22;5006306;28;20045;-59
2022/01/19 04:30:35;;;;;;;28.90;10.07;;;;;;;3.61;79.45;101189.84;5009313;28;20050;-59
2022/01/19 04:33:08;;;;;;;26.77;10.70;;;;;;;3.63;79.29;101187.34;5004654;28;20057;-55
2022/01/19 04:35:45;;;;;;;30.58;11.23;;;;;;;3.63;79.10;101166.84;5011341;28;20162;-56
2022/01/19 04:44:11;;;;;;;25.83;9.48;;;;;;;3.62;79.40;101180.47;4986290;28;20643;-60
2022/01/19 05:03:23;;;;;;;25.10;9.25;;;;;;;3.59;79.13;101184.63;4999053;28;20064;-56
2022/01/19 05:05:59;;;;;;;26.48;9.82;;;;;;;3.62;79.18;101185.59;4999368;28;20127;-58
2022/01/19 05:08:46;;;;;;;25.70;7.65;;;;;;;3.63;79.20;101182.22;5000111;28;20609;-55
2022/01/19 05:13:58;;;;;;;24.13;9.20;;;;;;;3.62;79.12;101170.22;5003728;28;20112;-57
2022/01/19 05:16:25;;;;;;;26.23;9.57;;;;;;;3.60;79.29;101165.91;5005369;28;20049;-56
2022/01/19 05:18:52;;;;;;;24.77;8.57;;;;;;;3.61;79.59;101166.78;5006017;28;20080;-55
2022/01/19 05:21:19;;;;;;;25.55;9.65;;;;;;;3.60;79.38;101167.59;5008744;28;20045;-57
2022/01/19 05:23:46;;;;;;;19.85;9.52;;;;;;;3.58;79.44;101166.66;5003868;28;20065;-55
2022/01/19 05:26:13;;;;;;;22.17;9.80;;;;;;;3.56;78.94;101164.03;5004848;28;20058;-57
2022/01/19 05:28:40;;;;;;;19.92;9.63;;;;;;;3.54;79.45;101163.09;5004890;28;20109;-57
2022/01/19 05:31:07;;;;;;;26.38;10.40;;;;;;;3.53;79.07;101166.47;5005554;28;20103;-56
2022/01/19 05:33:34;;;;;;;21.73;9.63;;;;;;;3.51;79.57;101170.63;5009150;28;20042;-55
2022/01/19 05:36:01;;;;;;;21.30;9.10;;;;;;;3.50;79.08;101156.06;5004917;28;20104;-57
2022/01/19 05:38:28;;;;;;;22.60;9.20;;;;;;;3.48;79.82;101144.91;5008466;28;20045;-58
2022/01/19 05:40:54;;;;;;;24.85;10.23;;;;;;;3.50;79.31;101145.81;5004089;28;20107;-59
2022/01/19 05:43:21;;;;;;;24.80;9.57;;;;;;;3.45;79.14;101126.81;5007473;28;20042;-57
2022/01/19 05:45:48;;;;;;;23.77;9.32;;;;;;;3.48;79.72;101116.72;5002034;28;20043;-57
2022/01/19 05:48:15;;;;;;;28.35;9.93;;;;;;;3.46;79.36;101114.09;5006502;28;20570;-58
2022/01/19 05:50:41;;;;;;;22.95;8.23;;;;;;;3.46;79.36;101113.19;5004489;28;20429;-59
2022/01/19 05:53:08;;;;;;;23.50;10.43;;;;;;;3.48;79.39;101103.91;5013547;28;20038;-56
2022/01/19 05:55:35;;;;;;;19.02;8.88;;;;;;;3.47;79.25;101105.59;5007693;28;20376;-57
2022/01/19 05:58:01;;;;;;;21.33;8.80;;;;;;;3.48;79.26;101101.34;5006345;28;20046;-59
2022/01/19 06:00:28;;;;;;;22.90;9.05;;;;;;;3.46;80.23;101072.22;5004583;28;20042;-57
2022/01/19 06:02:55;;;;;;;21.13;9.32;;;;;;;3.45;79.22;101062.78;5005739;28;20058;-56
2022/01/19 06:05:22;;;;;;;32.25;10.15;;;;;;;3.43;80.05;101065.28;5007975;28;20137;-58
2022/01/19 06:07:49;;;;;;;26.90;10.50;;;;;;;3.43;79.59;101077.19;5002680;28;20516;-61
2022/01/19 06:13:02;;;;;;;23.20;9.40;;;;;;;3.42;79.59;101071.22;5003236;28;20046;-58
2022/01/19 06:15:29;;;;;;;24.27;9.60;;;;;;;3.42;80.26;101075.47;5002442;28;20054;-58
2022/01/19 06:17:55;;;;;;;25.27;9.60;;;;;;;3.41;80.05;101064.31;4997716;28;20054;-58
2022/01/19 06:20:22;;;;;;;22.33;10.50;;;;;;;3.42;79.71;101072.91;5000781;28;20050;-59
2022/01/19 06:22:48;;;;;;;25.50;9.45;;;;;;;3.41;79.69;101069.44;5001105;28;20100;-60
2022/01/19 06:25:15;;;;;;;22.85;8.68;;;;;;;3.44;80.16;101079.84;5007337;28;20646;-58
2022/01/19 06:27:42;;;;;;;27.02;10.15;;;;;;;3.48;80.06;101070.63;5004776;28;20049;-59
2022/01/19 06:30:11;;;;;;;27.60;9.30;;;;;;;3.52;79.89;101064.81;5006692;28;20129;-60
2022/01/19 06:32:39;;;;;;;26.98;9.43;;;;;;;3.53;79.96;101058.88;5000780;28;20531;-57
2022/01/19 06:35:07;;;;;;;25.38;9.50;;;;;;;3.52;79.69;101049.44;4987173;28;20054;-60
2022/01/19 06:37:34;;;;;;;21.33;7.82;;;;;;;3.54;79.83;101055.47;5001676;28;20049;-57
2022/01/19 06:40:03;;;;;;;23.63;9.80;;;;;;;3.53;79.73;101057.97;5008186;28;20042;-60
2022/01/19 06:42:34;;;;;;;24.73;9.88;;;;;;;3.50;80.44;101048.47;5002070;28;20071;-59
2022/01/19 06:45:03;;;;;;;23.88;9.18;;;;;;;3.51;80.32;101052.78;5005434;28;20108;-60
2022/01/19 06:47:33;;;;;;;24.15;8.85;;;;;;;3.51;80.28;101051.94;5003428;28;20058;-57
2022/01/19 06:50:20;;;;;;;23.73;8.68;;;;;;;3.52;79.78;101031.50;5005843;28;20036;-59
2022/01/19 06:52:48;;;;;;;23.25;10.10;;;;;;;3.53;79.91;101038.38;4999670;28;20046;-56
2022/01/19 06:55:15;;;;;;;18.48;8.70;;;;;;;3.56;79.56;101059.00;5003728;28;20111;-59
2022/01/19 06:57:44;;;;;;;23.25;8.45;;;;;;;3.58;80.29;101047.13;5002058;28;20050;-60
2022/01/19 07:00:12;;;;;;;20.13;7.97;;;;;;;3.62;79.72;101052.38;5000659;28;20058;-60
2022/01/19 07:02:39;;;;;;;18.88;9.50;;;;;;;3.65;79.85;101052.50;5003535;28;20046;-57
2022/01/19 07:05:06;;;;;;;21.65;8.15;;;;;;;3.65;79.78;101043.13;5006590;28;20038;-58
2022/01/19 07:07:34;;;;;;;19.60;8.18;;;;;;;3.67;79.92;101032.94;5004934;28;20054;-57
2022/01/19 07:10:01;;;;;;;23.80;8.50;;;;;;;3.70;79.87;101035.63;5004009;28;20053;-61
2022/01/19 07:12:29;;;;;;;18.77;6.57;;;;;;;3.72;79.85;101023.78;4998807;28;20605;-59
2022/01/19 07:14:55;;;;;;;21.05;7.90;;;;;;;3.72;79.76;101023.78;5005774;28;20111;-58
2022/01/19 07:17:22;;;;;;;16.67;7.53;;;;;;;3.70;79.67;101022.81;5004168;28;20431;-58
2022/01/19 07:19:49;;;;;;;24.23;9.23;;;;;;;3.68;79.28;101021.91;5006910;28;20497;-60
2022/01/19 07:22:16;;;;;;;16.33;7.65;;;;;;;3.64;79.77;101009.78;5001717;28;20045;-57
2022/01/19 07:24:44;;;;;;;18.83;8.73;;;;;;;3.65;79.47;101007.25;5001780;28;20457;-56
2022/01/19 07:27:10;;;;;;;20.35;8.35;;;;;;;3.68;79.89;101021.91;4996678;28;20077;-56
2022/01/19 07:29:37;;;;;;;19.38;8.57;;;;;;;3.72;79.36;101003.28;5002538;28;20100;-59
2022/01/19 07:32:04;;;;;;;25.95;9.52;;;;;;;3.75;80.01;101003.38;4999066;28;20053;-59
2022/01/19 07:34:30;;;;;;;18.58;7.78;;;;;;;3.79;80.38;100989.00;5000802;28;20050;-58
2022/01/19 07:36:58;;;;;;;21.02;7.88;;;;;;;3.81;79.94;100985.69;5003963;28;20069;-57
2022/01/19 07:39:25;;;;;;;19.15;7.93;;;;;;;3.84;79.68;100983.25;5006076;28;20049;-59
2022/01/19 07:41:53;;;;;;;17.15;7.85;;;;;;;3.85;79.63;100981.59;5003662;28;20453;-61
2022/01/19 07:44:20;;;;;;;22.48;7.63;;;;;;;3.86;79.73;100984.19;5003367;28;20046;-59
2022/01/19 07:46:48;;;;;;;17.10;7.10;;;;;;;3.83;79.82;100973.81;5002836;28;20158;-59
2022/01/19 07:49:15;;;;;;;20.08;8.10;;;;;;;3.82;79.76;100973.75;4999775;28;20096;-59
2022/01/19 07:51:41;;;;;;;22.40;7.95;;;;;;;3.80;79.84;100970.25;4992228;28;20475;-59
2022/01/19 07:54:08;;;;;;;18.80;7.43;;;;;;;3.78;79.72;100977.03;4985842;28;20506;-60
2022/01/19 07:56:35;;;;;;;17.55;7.95;;;;;;;3.77;80.21;100973.56;4985537;28;20051;-59
2022/01/19 07:59:01;;;;;;;20.20;7.85;;;;;;;3.73;80.26;100985.41;4984286;28;20655;-61
2022/01/19 08:01:31;;;;;;;23.17;7.47;;;;;;;3.76;80.05;100974.41;4984392;28;20050;-55
2022/01/19 08:03:59;;;;;;;20.88;8.40;;;;;;;3.80;80.20;100976.25;4982364;28;20054;-60
2022/01/19 08:06:26;;;;;;;16.33;7.13;;;;;;;3.86;80.31;100976.47;4987253;28;20096;-56
2022/01/19 08:08:53;;;;;;;18.88;9.27;;;;;;;3.91;80.12;100975.78;4979221;28;20042;-59
2022/01/19 08:11:19;;;;;;;19.60;7.50;;;;;;;3.94;80.30;100975.91;4981737;28;20058;-58
2022/01/19 08:13:46;;;;;;;22.30;7.10;;;;;;;3.97;80.92;100978.59;4983781;28;20054;-56
2022/01/19 08:16:13;;;;;;;17.42;7.32;;;;;;;3.98;80.30;100970.97;4994566;28;20100;-60
2022/01/19 08:18:39;;;;;;;22.65;9.10;;;;;;;3.99;80.42;100964.19;4998536;28;20054;-57
2022/01/19 08:21:07;;;;;;;22.38;7.85;;;;;;;4.02;80.88;100961.72;4997394;28;20057;-61
2022/01/19 08:23:33;;;;;;;18.35;8.05;;;;;;;4.03;80.12;100958.34;4997697;28;20046;-59
2022/01/19 08:26:00;;;;;;;16.00;7.20;;;;;;;4.02;80.59;100951.44;5002945;28;20478;-60
2022/01/19 08:28:27;;;;;;;18.17;8.63;;;;;;;4.02;80.63;100951.44;4994115;28;20050;-58
2022/01/19 08:30:53;;;;;;;19.88;7.85;;;;;;;4.05;80.60;100946.44;4998686;28;20070;-59
2022/01/19 08:33:20;;;;;;;14.05;6.18;;;;;;;4.05;80.55;100956.72;4999704;28;20073;-59
2022/01/19 08:35:46;;;;;;;26.77;8.13;;;;;;;4.09;80.56;100953.44;4999127;28;20073;-57
2022/01/19 08:38:13;;;;;;;20.95;7.53;;;;;;;4.13;80.45;100963.81;5000734;28;20096;-60
2022/01/19 08:40:40;;;;;;;17.08;8.13;;;;;;;4.16;80.31;100969.97;4997749;28;20091;-60
2022/01/19 08:43:07;;;;;;;17.42;7.07;;;;;;;4.19;80.39;100967.50;4988291;28;20041;-55
2022/01/19 08:45:35;;;;;;;17.80;7.63;;;;;;;4.21;81.16;100962.44;4995298;28;20069;-57
2022/01/19 08:48:03;;;;;;;23.55;8.02;;;;;;;4.28;80.89;100969.53;5002652;28;20058;-58
2022/01/19 08:50:30;;;;;;;22.17;8.07;;;;;;;4.36;80.58;100968.13;4999539;28;20434;-60
2022/01/19 08:52:56;;;;;;;20.35;8.23;;;;;;;4.54;81.15;100956.81;5006084;28;20156;-60
2022/01/19 08:55:23;;;;;;;26.88;10.80;;;;;;;4.64;80.85;100968.28;5000859;28;20050;-61
2022/01/19 08:57:51;;;;;;;21.25;9.68;;;;;;;4.72;80.52;100961.75;5002194;28;20069;-57
2022/01/19 09:00:18;;;;;;;21.55;9.38;;;;;;;4.83;80.17;100972.38;5002322;28;20060;-60
2022/01/19 09:02:45;;;;;;;21.77;8.73;;;;;;;4.92;80.40;100971.84;5000370;28;20601;-59
2022/01/19 09:05:12;;;;;;;23.70;7.53;;;;;;;4.94;80.38;100982.16;5002672;28;20062;-59
2022/01/19 09:07:40;;;;;;;22.52;9.27;;;;;;;4.99;80.22;100983.19;4999125;28;20057;-62
2022/01/19 09:10:10;;;;;;;21.08;8.95;;;;;;;5.04;79.61;100973.97;4998188;28;20042;-59
2022/01/19 09:12:37;;;;;;;;;;;;;;;5.05;80.40;100980.84;5001237;28;20038;-58
2022/01/19 09:15:05;;;;;;;28.95;9.75;;;;;;;5.10;79.44;100969.03;5002375;28;20040;-59
2022/01/19 09:17:33;;;;;;;23.52;9.70;;;;;;;5.13;79.75;100986.25;5008130;28;20050;-58
2022/01/19 09:20:00;;;;;;;27.75;10.23;;;;;;;5.11;79.69;100981.09;5002667;28;20060;-58
2022/01/19 09:22:26;;;;;;;21.63;8.68;;;;;;;5.11;79.22;100988.78;5006169;28;20528;-58
2022/01/19 09:24:59;;;;;;;21.85;8.73;;;;;;;5.12;79.06;100984.50;5003841;28;20038;-61
2022/01/19 09:27:25;;;;;;;27.08;9.15;;;;;;;5.14;79.21;100988.88;5001907;28;20049;-59
2022/01/19 09:29:52;;;;;;;19.77;8.75;;;;;;;5.20;79.23;100989.94;4999323;28;20057;-60
2022/01/19 09:32:39;;;;;;;19.10;8.43;;;;;;;5.26;80.25;100991.00;5001155;28;20109;-60
2022/01/19 09:35:09;;;;;;;21.92;8.32;;;;;;;5.28;79.71;100989.34;5000270;28;20053;-58
2022/01/19 09:37:38;;;;;;;24.48;8.82;;;;;;;5.28;79.48;100993.63;4997889;28;20085;-57
2022/01/19 09:40:25;;;;;;;19.48;8.75;;;;;;;5.28;79.75;100993.63;4995295;28;20173;-58
2022/01/19 09:42:51;;;;;;;20.10;9.15;;;;;;;5.31;79.62;100993.75;4997347;28;20105;-56
2022/01/19 09:45:18;;;;;;;21.50;6.95;;;;;;;5.33;79.77;100997.22;4998403;28;20504;-58
2022/01/19 09:47:46;;;;;;;16.80;8.43;;;;;;;5.35;78.97;101000.72;4990782;28;20046;-57
2022/01/19 09:50:12;;;;;;;24.88;11.07;;;;;;;5.36;80.08;100987.06;4981195;28;20124;-58
2022/01/19 09:52:39;;;;;;;27.00;12.75;;;;;;;5.37;79.24;100988.78;5001127;28;20049;-56
2022/01/19 09:55:07;;;;;;;18.98;9.27;;;;;;;5.42;80.09;100990.63;5007455;28;20054;-59
2022/01/19 09:57:34;;;;;;;23.88;10.05;;;;;;;5.44;79.90;100989.88;5005432;28;20046;-56
2022/01/19 10:00:02;;;;;;;16.38;6.60;;;;;;;5.47;80.15;101001.97;5008020;28;20437;-61
2022/01/19 10:02:28;;;;;;;18.63;8.43;;;;;;;5.56;80.11;100999.69;5003236;28;20057;-56
2022/01/19 10:05:05;;;;;;;20.35;8.68;;;;;;;5.69;79.00;101007.81;5005814;28;20050;-57
2022/01/19 10:07:32;;;;;;;19.27;7.95;;;;;;;5.89;79.93;100998.16;5003117;28;20144;-57
2022/01/19 10:10:05;;;;;;;17.98;8.95;;;;;;;6.01;78.51;101007.97;5005451;28;20061;-56
2022/01/19 10:18:17;;;;;;;21.30;7.30;;;;;;;6.05;79.75;101004.72;5006379;28;20050;-59
2022/01/19 10:20:47;;;;;;;15.13;7.05;;;;;;;6.07;79.46;100987.63;4998036;28;20057;-56
2022/01/19 10:23:36;;;;;;;19.98;7.95;;;;;;;6.12;79.29;100980.91;5002139;28;20056;-60
2022/01/19 10:26:07;;;;;;;20.52;8.07;;;;;;;6.21;79.16;100984.59;4993293;28;20538;-57
2022/01/19 10:29:00;;;;;;;14.38;7.75;;;;;;;6.23;78.59;100983.81;4994827;28;20058;-59
2022/01/19 10:31:29;;;;;;;15.65;7.65;;;;;;;6.39;78.79;100999.72;4996186;28;20547;-57
2022/01/19 10:34:16;;;;;;;17.73;7.10;;;;;;;6.54;79.17;101001.84;4999041;28;20053;-58
2022/01/19 10:36:46;;;;;;;20.77;7.65;;;;;;;6.65;79.04;100977.31;5000828;28;20203;-57
2022/01/19 10:39:14;;;;;;;15.80;8.77;;;;;;;7.03;78.83;100978.34;5006611;28;20050;-56
2022/01/19 10:41:59;;;;;;;20.67;8.43;;;;;;;7.54;78.44;100992.50;5005854;28;20124;-59
2022/01/19 10:44:33;;;;;;;17.35;7.30;;;;;;;7.67;77.62;101003.16;5008114;28;20049;-56
2022/01/19 10:47:40;;;;;;;18.88;7.47;;;;;;;7.60;76.35;101012.41;5003686;28;20128;-61
2022/01/19 10:50:09;;;;;;;17.08;5.95;;;;;;;7.49;76.26;101013.88;5002252;28;21332;-55
2022/01/19 10:52:40;;;;;;;20.20;6.70;;;;;;;7.38;76.78;101014.47;5002881;28;20053;-58
2022/01/19 10:55:11;;;;;;;24.17;9.07;;;;;;;7.29;76.13;101006.47;5000050;28;20050;-59
2022/01/19 10:57:41;;;;;;;19.20;7.45;;;;;;;7.25;77.86;101017.53;5001806;28;20108;-58
2022/01/19 11:00:10;;;;;;;12.38;5.25;;;;;;;7.17;78.05;101002.72;4994412;28;20046;-57
2022/01/19 11:02:37;;;;;;;17.58;6.70;;;;;;;7.17;77.89;100997.59;4980891;28;20050;-56
2022/01/19 11:05:05;;;;;;;14.88;7.38;;;;;;;7.28;78.20;101004.72;4985140;28;20050;-54
2022/01/19 11:07:31;;;;;;;17.73;7.10;;;;;;;7.35;78.13;101004.06;4975609;28;20055;-58
2022/01/19 11:10:07;;;;;;;17.48;7.90;;;;;;;7.46;77.90;101009.50;4986607;28;20100;-60
2022/01/19 11:12:44;;;;;;;19.45;6.90;;;;;;;7.67;76.49;101019.47;4978120;28;20050;-58
2022/01/19 11:15:13;;;;;;;18.23;8.13;;;;;;;7.78;76.79;101011.13;4985371;28;20050;-56
2022/01/19 11:17:40;;;;;;;10.70;5.78;;;;;;;7.88;76.07;101023.44;4984012;28;20576;-59
2022/01/19 11:20:11;;;;;;;11.40;5.93;;;;;;;7.95;75.62;101014.13;4979675;28;20403;-56
2022/01/19 11:22:51;;;;;;;6.90;4.18;;;;;;;7.86;76.62;101004.44;4986818;28;20098;-57
2022/01/19 11:25:27;;;;;;;10.68;5.00;;;;;;;7.91;75.45;100996.84;4983630;28;20167;-56
2022/01/19 11:28:11;;;;;;;7.75;5.15;;;;;;;7.97;76.20;100982.38;4979018;28;20054;-57
2022/01/19 11:30:46;;;;;;;9.68;4.68;;;;;;;8.04;76.22;100977.34;4982595;28;20058;-57
2022/01/19 11:33:27;;;;;;;10.45;4.43;;;;;;;8.12;74.91;100985.25;4991113;28;20050;-56
2022/01/19 11:36:00;;;;;;;11.40;4.82;;;;;;;8.21;75.23;100996.66;5002996;28;20119;-57
2022/01/19 11:38:46;;;;;;;5.13;3.13;;;;;;;8.15;73.28;100980.16;4999393;28;20058;-57
2022/01/19 11:41:36;;;;;;;5.63;3.67;;;;;;;8.17;74.27;100994.84;5000487;28;20100;-57
2022/01/19 11:44:04;;;;;;;3.47;2.72;;;;;;;8.25;73.07;100978.66;5001383;28;20045;-58
2022/01/19 11:46:36;;;;;;;8.95;3.47;;;;;;;8.35;73.23;100975.44;5000319;28;20062;-57
2022/01/19 11:49:05;;;;;;;7.43;3.50;;;;;;;8.42;73.44;100967.00;5002800;28;20057;-57
2022/01/19 11:51:35;;;;;;;13.20;3.50;;;;;;;8.55;73.17;100962.13;5002311;28;20046;-58
2022/01/19 11:54:08;;;;;;;5.13;2.85;;;;;;;8.64;71.52;100969.19;5003803;28;20054;-57
2022/01/19 11:57:04;;;;;;;6.57;2.53;;;;;;;8.74;70.98;100971.97;5003650;28;20050;-59
2022/01/19 12:00:11;;;;;;;3.58;2.38;;;;;;;8.70;70.36;100962.44;5004026;28;20471;-58
2022/01/19 12:02:41;;;;;;;12.85;7.88;;;;;;;8.78;70.26;100956.53;5000903;28;20124;-58
2022/01/19 12:05:29;;;;;;;;;;;;;;;8.69;70.24;100947.78;5001848;28;20172;-56
2022/01/19 12:08:00;;;;;;;14.90;6.90;;;;;;;8.73;70.65;100944.41;5000933;28;19935;-60
2022/01/19 12:10:45;;;;;;;23.85;13.43;;;;;;;8.63;69.26;100947.63;5002180;28;20050;-57
2022/01/19 12:13:29;;;;;;;3.65;2.40;;;;;;;8.62;69.51;100976.91;4999597;28;20141;-62
2022/01/19 12:16:24;;;;;;;6.07;3.22;;;;;;;8.62;69.31;101002.72;5003086;28;20054;-58
2022/01/19 12:18:55;;;;;;;3.42;2.20;;;;;;;8.64;69.44;100995.88;5000678;28;20058;-59
2022/01/19 12:21:44;;;;;;;9.40;3.83;;;;;;;8.65;68.17;101002.75;5002039;28;20058;-59
2022/01/19 12:24:37;;;;;;;4.75;2.03;;;;;;;8.79;68.61;101016.00;4998326;28;20080;-59
2022/01/19 12:27:26;;;;;;;4.47;2.10;;;;;;;8.87;68.18;101018.72;5005193;28;20054;-60
2022/01/19 12:30:05;;;;;;;8.55;2.03;;;;;;;8.89;67.68;101019.63;5001827;28;20119;-59
2022/01/19 12:32:36;;;;;;;4.25;2.20;;;;;;;8.83;66.44;101022.94;5002606;28;20060;-61
2022/01/19 12:35:11;;;;;;;7.13;1.77;;;;;;;8.73;65.57;101024.47;5003439;28;20050;-58
2022/01/19 12:37:43;;;;;;;6.15;2.13;;;;;;;8.63;65.78;100994.13;5002331;28;20046;-59
2022/01/19 12:40:35;;;;;;;5.85;2.22;;;;;;;8.43;64.60;100991.97;5001652;28;20124;-58
2022/01/19 12:43:05;;;;;;;5.30;2.13;;;;;;;8.28;64.09;101012.28;5003334;28;20046;-63
2022/01/19 12:45:43;;;;;;;9.43;2.20;;;;;;;8.23;64.59;101005.31;5001209;28;20509;-60
2022/01/19 12:48:12;;;;;;;9.93;2.17;;;;;;;8.23;65.69;101002.72;5003657;28;20042;-59
2022/01/19 12:50:42;;;;;;;6.93;2.03;;;;;;;8.21;66.16;100995.81;5004582;28;20050;-59
2022/01/19 12:53:15;;;;;;;7.30;1.95;;;;;;;8.25;65.62;100992.44;5003448;28;20108;-57